Time;durP1;ratioP1;P1;durP2;ratioP2;P2;SDS_P1;SDS_P2;PMS_P1;PMS_P2;Temp;Humidity;BMP_temperature;BMP_pressure;BME280_temperature;BME280_humidity;BME280_pressure;Samples;Min_cycle;Max_cycle;Signal;HPM_P1;HPM_P2
2022/05/01 00:00:26;;;;;;;5.82;2.38;;;;;;;17.42;61.60;101140.31;2093975;28;20040;-79
2022/05/01 00:01:48;;;;;;;6.47;2.40;;;;;;;17.40;61.61;101140.31;2090370;28;20083;-78
2022/05/01 00:03:30;;;;;;;7.43;2.65;;;;;;;17.41;61.67;101151.88;2102353;28;20488;-78
2022/05/01 00:04:52;;;;;;;8.35;2.80;;;;;;;17.40;61.66;101145.66;2097537;28;20097;-79
2022/05/01 00:06:15;;;;;;;7.18;2.70;;;;;;;17.42;61.58;101151.88;2100995;28;20534;-78
2022/05/01 00:07:36;;;;;;;5.20;2.33;;;;;;;17.45;61.58;101149.19;2101384;28;20047;-78
2022/05/01 00:09:00;;;;;;;7.00;2.78;;;;;;;17.44;61.60;101142.09;2089271;28;20055;-78
2022/05/01 00:10:22;;;;;;;11.05;3.10;;;;;;;17.43;61.61;101140.31;2093211;28;20047;-78
2022/05/01 00:11:44;;;;;;;9.68;2.22;;;;;;;17.40;61.76;101142.97;2101462;28;20453;-77
2022/05/01 00:13:08;;;;;;;8.68;2.90;;;;;;;17.36;61.85;101138.56;2102071;28;20040;-78
2022/05/01 00:14:29;;;;;;;9.18;2.83;;;;;;;17.35;62.01;101126.13;2095248;28;20045;-78
2022/05/01 00:15:53;;;;;;;9.52;2.90;;;;;;;17.36;62.10;101130.56;2094763;28;20036;-78
2022/05/01 00:17:16;;;;;;;5.25;2.42;;;;;;;17.36;62.05;101143.91;2095063;28;20151;-77
2022/05/01 00:18:38;;;;;;;10.95;2.42;;;;;;;17.36;62.00;101143.91;2094109;28;20058;-78
2022/05/01 00:20:00;;;;;;;7.70;2.53;;;;;;;17.36;61.99;101140.34;2100110;28;20393;-77
2022/05/01 00:21:22;;;;;;;9.50;4.05;;;;;;;17.36;62.00;101138.56;2091551;28;20122;-77
2022/05/01 00:22:43;;;;;;;6.25;2.47;;;;;;;17.39;61.97;101148.34;2097274;28;20203;-77
2022/05/01 00:24:07;;;;;;;10.13;2.70;;;;;;;17.38;61.93;101141.22;2090895;28;20155;-78
2022/05/01 00:25:30;;;;;;;8.02;2.63;;;;;;;17.40;61.83;101148.31;2099276;28;20070;-78
2022/05/01 00:26:53;;;;;;;7.72;2.97;;;;;;;17.39;61.86;101135.00;2102975;28;20593;-78
2022/05/01 00:28:16;;;;;;;12.43;3.45;;;;;;;17.39;61.87;101135.00;2086523;28;20116;-77
2022/05/01 00:29:39;;;;;;;12.20;4.05;;;;;;;17.37;62.05;101135.00;2098744;28;20096;-78
2022/05/01 00:31:05;;;;;;;8.85;2.92;;;;;;;17.40;61.94;101134.97;2097386;28;20044;-78
2022/05/01 00:36:25;;;;;;;9.95;2.70;;;;;;;17.37;61.94;101119.00;2093304;28;20057;-78
2022/05/01 00:37:30;;;;;;;10.27;3.00;;;;;;;17.32;61.96;101120.81;2097348;28;20059;-78
2022/05/01 00:38:51;;;;;;;5.97;2.47;;;;;;;17.31;61.88;101123.47;2089033;28;20151;-78
2022/05/01 00:40:14;;;;;;;7.40;3.15;;;;;;;17.29;61.74;101112.81;2094711;28;20043;-78
2022/05/01 00:41:36;;;;;;;8.35;2.33;;;;;;;17.27;61.83;101114.59;2085755;28;20068;-78
2022/05/01 00:43:03;;;;;;;8.55;2.42;;;;;;;17.27;61.73;101109.25;2091204;28;20541;-78
2022/05/01 00:44:25;;;;;;;7.75;2.25;;;;;;;17.25;61.74;101104.84;2097962;28;20059;-78
2022/05/01 00:45:47;;;;;;;4.60;2.10;;;;;;;17.24;61.76;101105.72;2101656;28;20055;-78
2022/05/01 00:47:11;;;;;;;10.43;2.47;;;;;;;17.26;61.78;101106.63;2102929;28;20072;-79
2022/05/01 00:48:32;;;;;;;7.80;2.22;;;;;;;17.22;61.74;101113.75;2103943;28;20073;-78
2022/05/01 00:49:54;;;;;;;5.32;2.70;;;;;;;17.21;61.64;101106.63;2095199;28;20048;-78
2022/05/01 00:51:16;;;;;;;4.93;2.35;;;;;;;17.23;61.67;101104.84;2087171;28;20443;-77
2022/05/01 00:52:39;;;;;;;9.25;2.25;;;;;;;17.22;61.44;101097.72;2109082;28;20067;-78
2022/05/01 00:54:02;;;;;;;6.95;2.55;;;;;;;17.28;61.37;101108.38;2097356;28;20052;-78
2022/05/01 00:55:25;;;;;;;8.57;2.50;;;;;;;17.32;61.21;101122.59;2094358;28;20044;-77
2022/05/01 00:56:51;;;;;;;5.50;2.95;;;;;;;17.35;61.04;101127.91;2094985;28;20109;-78
2022/05/01 00:58:13;;;;;;;9.52;2.63;;;;;;;17.35;60.94;101128.78;2087508;28;20118;-78
2022/05/01 00:59:36;;;;;;;;;;;;;;;17.35;60.81;101131.44;2084648;28;20049;-78
2022/05/01 01:00:58;;;;;;;5.82;3.42;;;;;;;17.31;60.79;101132.38;2091670;28;19920;-78
2022/05/01 01:02:23;;;;;;;4.88;2.95;;;;;;;17.34;60.78;101132.34;2100148;28;20389;-78
2022/05/01 01:03:44;;;;;;;11.32;3.33;;;;;;;17.32;60.70;101128.81;2102193;28;20048;-78
2022/05/01 01:05:08;;;;;;;5.47;3.03;;;;;;;17.35;60.72;101123.44;2088259;28;20107;-78
2022/05/01 01:06:29;;;;;;;7.63;2.75;;;;;;;17.35;60.75;101127.91;2098233;28;20499;-77
2022/05/01 01:07:52;;;;;;;10.57;3.33;;;;;;;17.37;60.75;101118.09;2093457;28;20460;-78
2022/05/01 01:09:15;;;;;;;7.07;2.95;;;;;;;17.37;60.73;101123.44;2106770;28;20117;-78
2022/05/01 01:10:38;;;;;;;6.75;2.65;;;;;;;17.33;60.77;101122.56;2091197;28;20144;-78
2022/05/01 01:13:37;;;;;;;7.03;2.70;;;;;;;17.32;60.89;101123.47;2061471;28;20053;-78
2022/05/01 01:14:59;;;;;;;7.88;2.83;;;;;;;17.35;60.94;101119.88;2097391;28;20129;-78
2022/05/01 01:16:21;;;;;;;7.88;2.97;;;;;;;17.35;60.94;101123.44;2108249;28;20087;-79
2022/05/01 01:17:47;;;;;;;6.22;3.13;;;;;;;17.36;60.91;101117.22;2104403;28;20055;-78
2022/05/01 01:19:10;;;;;;;9.18;2.95;;;;;;;17.32;60.93;101112.81;2101543;28;20055;-78
2022/05/01 01:20:42;;;;;;;10.68;3.50;;;;;;;17.33;61.00;101102.97;2101425;28;20047;-78
2022/05/01 01:22:06;;;;;;;6.53;2.70;;;;;;;17.31;61.08;101111.03;2094417;28;20136;-78
2022/05/01 01:23:31;;;;;;;6.38;1.85;;;;;;;17.30;61.05;101111.91;2086492;28;20045;-77
2022/05/01 01:24:54;;;;;;;11.00;3.28;;;;;;;17.27;61.15;101113.69;2099987;28;20131;-78
2022/05/01 01:26:17;;;;;;;10.10;3.35;;;;;;;17.30;61.12;101100.34;2102849;28;20052;-78
2022/05/01 01:27:39;;;;;;;7.40;2.22;;;;;;;17.31;61.15;101103.03;2102434;28;20055;-78
2022/05/01 01:31:40;;;;;;;7.47;2.38;;;;;;;17.30;61.14;101087.91;2103226;28;20108;-78
2022/05/01 01:32:26;;;;;;;6.88;2.70;;;;;;;17.31;61.17;101091.47;2105137;28;20044;-78
2022/05/01 01:33:52;;;;;;;6.05;2.65;;;;;;;17.32;61.16;101087.91;2090958;28;20487;-77
2022/05/01 01:35:15;;;;;;;7.75;2.45;;;;;;;17.29;61.31;101093.25;2101533;28;20117;-78
2022/05/01 01:36:41;;;;;;;6.68;2.70;;;;;;;17.30;61.32;101095.91;2094533;28;20074;-78
2022/05/01 01:38:03;;;;;;;7.95;2.40;;;;;;;17.27;61.26;101095.03;2080991;28;20145;-78
2022/05/01 01:39:26;;;;;;;11.15;2.90;;;;;;;17.23;61.38;101098.63;2097903;28;20037;-78
2022/05/01 01:40:51;;;;;;;5.40;2.50;;;;;;;17.23;61.46;101104.84;2093775;28;20596;-77
2022/05/01 01:42:17;;;;;;;8.40;2.45;;;;;;;17.22;61.57;101097.72;2094998;28;20049;-79
2022/05/01 01:43:44;;;;;;;7.07;2.47;;;;;;;17.22;61.47;101108.41;2101952;28;20040;-78
2022/05/01 01:45:09;;;;;;;9.35;3.42;;;;;;;17.21;61.62;101103.06;2097256;28;20056;-79
2022/05/01 01:46:33;;;;;;;8.27;2.53;;;;;;;17.22;61.51;101113.75;2092446;28;20052;-79
2022/05/01 01:47:55;;;;;;;8.35;3.00;;;;;;;17.23;61.42;101109.28;2098894;28;20138;-79
2022/05/01 01:49:17;;;;;;;;;;;;;;;17.26;61.40;101103.94;2094980;28;20048;-78
2022/05/01 01:50:40;;;;;;;9.02;2.60;;;;;;;17.26;61.23;101104.84;2094456;28;20141;-78
2022/05/01 01:52:06;;;;;;;6.55;2.78;;;;;;;17.28;61.17;101103.03;2099531;28;20044;-79
2022/05/01 01:53:29;;;;;;;9.63;2.58;;;;;;;17.28;61.05;101100.34;2103826;28;20044;-78
2022/05/01 01:54:52;;;;;;;6.38;2.55;;;;;;;17.30;61.08;101101.25;2078067;28;20041;-78
2022/05/01 01:56:14;;;;;;;10.32;2.80;;;;;;;17.27;61.00;101108.38;2092685;28;20384;-78
2022/05/01 01:57:36;;;;;;;7.60;2.47;;;;;;;17.23;61.08;101112.84;2104059;28;20068;-79
2022/05/01 01:58:59;;;;;;;5.45;2.42;;;;;;;17.25;61.05;101108.41;2094193;28;20053;-78
2022/05/01 02:00:21;;;;;;;4.50;1.90;;;;;;;17.27;61.03;101106.59;2085451;28;20076;-78
2022/05/01 02:01:43;;;;;;;7.00;2.80;;;;;;;17.27;60.98;101103.03;2099891;28;20044;-79
2022/05/01 02:03:07;;;;;;;8.80;2.38;;;;;;;17.26;60.95;101110.19;2100211;28;20060;-79
2022/05/01 02:04:29;;;;;;;7.32;2.63;;;;;;;17.24;60.98;101111.06;2104846;28;20044;-78
2022/05/01 02:05:51;;;;;;;4.18;1.42;;;;;;;17.22;61.08;101108.41;2085502;28;20048;-78
2022/05/01 02:07:14;;;;;;;8.48;2.60;;;;;;;17.23;61.22;101095.94;2083792;28;20432;-79
2022/05/01 02:08:37;;;;;;;11.23;2.85;;;;;;;17.23;61.17;101099.50;2094557;28;20055;-78
2022/05/01 02:09:58;;;;;;;8.95;2.50;;;;;;;17.22;61.15;101092.41;2094230;28;20484;-77
2022/05/01 02:11:21;;;;;;;6.97;2.20;;;;;;;17.21;61.17;101095.94;2086287;28;20053;-79
2022/05/01 02:12:43;;;;;;;5.80;2.00;;;;;;;17.20;61.08;101098.66;2094061;28;20776;-78
2022/05/01 02:14:06;;;;;;;7.05;2.65;;;;;;;17.18;61.22;101092.44;2092039;28;20060;-78
2022/05/01 02:15:30;;;;;;;8.02;2.67;;;;;;;17.17;61.11;101101.31;2090837;28;20137;-78
2022/05/01 02:16:55;;;;;;;4.90;2.28;;;;;;;17.17;61.34;101104.00;2093413;28;20156;-78
2022/05/01 02:18:17;;;;;;;6.65;2.55;;;;;;;17.16;61.42;101104.88;2098009;28;20527;-79
2022/05/01 02:19:40;;;;;;;8.50;2.90;;;;;;;17.16;61.50;101105.78;2094299;28;20049;-79
2022/05/01 02:22:44;;;;;;;10.50;3.40;;;;;;;17.13;61.70;101111.16;2095637;28;20057;-78
2022/05/01 02:24:09;;;;;;;5.32;2.40;;;;;;;17.11;61.76;101119.16;2092160;28;20060;-79
2022/05/01 02:25:31;;;;;;;8.70;2.58;;;;;;;17.08;61.82;101121.81;2094002;28;20048;-78
2022/05/01 02:26:53;;;;;;;7.57;3.20;;;;;;;17.05;61.77;101118.28;2100333;28;20064;-78
2022/05/01 02:28:16;;;;;;;10.40;3.33;;;;;;;17.06;62.12;101112.97;2092664;28;20052;-79
2022/05/01 02:29:38;;;;;;;;;;;;;;;17.08;62.14;101120.94;2097391;28;20096;-78
2022/05/01 02:31:00;;;;;;;8.27;2.80;;;;;;;17.07;61.99;101113.81;2092061;28;20031;-78
2022/05/01 02:32:23;;;;;;;9.05;3.40;;;;;;;17.08;62.15;101108.47;2101719;28;20130;-78
2022/05/01 02:33:45;;;;;;;8.90;3.50;;;;;;;17.12;62.03;101120.03;2101137;28;20052;-78
2022/05/01 02:35:10;;;;;;;10.30;2.75;;;;;;;17.16;62.02;101126.22;2098367;28;20059;-78
2022/05/01 02:36:32;;;;;;;5.82;3.03;;;;;;;17.14;61.81;101132.44;2091809;28;20056;-77
2022/05/01 02:37:56;;;;;;;5.65;2.55;;;;;;;17.16;61.92;101129.78;2086756;28;20048;-78
2022/05/01 02:39:19;;;;;;;6.30;3.03;;;;;;;17.17;61.86;101128.91;2101824;28;20080;-78
2022/05/01 02:40:40;;;;;;;9.30;3.17;;;;;;;17.20;61.83;101128.88;2104162;28;20044;-77
2022/05/01 02:42:03;;;;;;;7.32;3.58;;;;;;;17.20;61.76;101114.66;2106688;28;20056;-78
2022/05/01 02:43:26;;;;;;;7.93;2.83;;;;;;;17.20;61.76;101118.19;2098263;28;20044;-78
2022/05/01 02:44:50;;;;;;;6.80;2.10;;;;;;;17.19;61.70;101127.13;2101829;28;20048;-78
2022/05/01 02:46:11;;;;;;;7.18;2.75;;;;;;;17.19;61.90;101118.22;2094972;28;20113;-78
2022/05/01 02:47:34;;;;;;;3.70;2.17;;;;;;;17.13;61.83;101120.00;2091643;28;20454;-77
2022/05/01 02:48:56;;;;;;;10.45;3.17;;;;;;;17.11;61.90;101107.59;2084971;28;20497;-77
2022/05/01 02:50:18;;;;;;;7.00;2.25;;;;;;;17.09;61.99;101101.38;2095645;28;20097;-78
2022/05/01 02:51:41;;;;;;;13.85;3.15;;;;;;;17.05;62.13;101099.63;2079138;28;20055;-77
2022/05/01 02:53:05;;;;;;;7.35;2.45;;;;;;;17.04;62.27;101109.41;2092029;28;20508;-77
2022/05/01 02:54:28;;;;;;;7.97;3.35;;;;;;;17.05;62.18;101110.28;2097815;28;20044;-78
2022/05/01 02:55:49;;;;;;;6.90;2.47;;;;;;;17.07;62.15;101100.47;2092425;28;20044;-78
2022/05/01 02:57:13;;;;;;;4.47;2.47;;;;;;;17.07;62.08;101103.16;2098233;28;20045;-78
2022/05/01 02:58:36;;;;;;;4.63;2.22;;;;;;;17.06;62.15;101104.97;2086539;28;20394;-78
2022/05/01 02:59:59;;;;;;;7.95;2.42;;;;;;;17.07;62.11;101109.38;2093025;28;20114;-77
2022/05/01 03:01:20;;;;;;;5.43;1.67;;;;;;;17.09;62.04;101104.94;2079531;28;20053;-78
2022/05/01 03:02:42;;;;;;;6.68;2.63;;;;;;;17.10;61.89;101104.03;2098369;28;20139;-78
2022/05/01 03:04:05;;;;;;;10.40;2.60;;;;;;;17.12;61.82;101104.03;2103090;28;20438;-78
2022/05/01 03:05:28;;;;;;;5.32;2.30;;;;;;;17.09;61.81;101115.59;2095394;28;20041;-78
2022/05/01 03:06:51;;;;;;;5.80;2.30;;;;;;;17.08;61.89;101115.59;2093010;28;20060;-77
2022/05/01 03:08:14;;;;;;;5.18;2.53;;;;;;;17.06;61.95;101112.97;2097445;28;20041;-78
2022/05/01 03:09:37;;;;;;;9.90;3.25;;;;;;;17.04;62.01;101111.19;2097933;28;20102;-78
2022/05/01 03:11:01;;;;;;;7.13;2.38;;;;;;;17.02;62.02;101108.50;2087288;28;20572;-78
2022/05/01 03:12:24;;;;;;;9.13;2.78;;;;;;;17.01;62.20;101114.75;2097111;28;20139;-78
2022/05/01 03:13:47;;;;;;;9.35;2.78;;;;;;;17.00;62.04;101114.78;2103443;28;20047;-78
2022/05/01 03:15:09;;;;;;;10.27;2.38;;;;;;;17.01;62.05;101128.06;2103381;28;20040;-78
2022/05/01 03:16:31;;;;;;;11.25;3.05;;;;;;;16.99;62.10;101118.34;2094732;28;20060;-77
2022/05/01 03:23:04;;;;;;;7.20;2.90;;;;;;;16.93;62.30;101135.25;2057088;28;20082;-77
2022/05/01 03:24:29;;;;;;;5.68;2.40;;;;;;;16.93;62.38;101126.38;2094580;28;20056;-78
2022/05/01 03:25:51;;;;;;;7.82;2.55;;;;;;;16.93;62.41;101121.03;2089587;28;20164;-78
2022/05/01 03:27:13;;;;;;;;;;;;;;;16.95;62.46;101128.09;2093258;28;20101;-78
2022/05/01 03:28:35;;;;;;;6.45;2.92;;;;;;;16.92;62.36;101124.59;2089573;28;19920;-78
2022/05/01 03:31:37;;;;;;;4.80;2.35;;;;;;;16.90;62.51;101127.25;2096400;28;20045;-78
2022/05/01 03:33:04;;;;;;;3.42;1.92;;;;;;;16.92;62.57;101125.47;2092906;28;20049;-78
2022/05/01 03:34:27;;;;;;;8.32;2.47;;;;;;;16.95;62.51;101128.09;2093730;28;20036;-78
2022/05/01 03:35:48;;;;;;;6.85;2.65;;;;;;;16.96;62.43;101145.00;2100382;28;20039;-78
2022/05/01 03:37:11;;;;;;;8.70;2.40;;;;;;;16.96;62.43;101129.00;2102756;28;20210;-77
2022/05/01 03:38:34;;;;;;;7.10;2.38;;;;;;;16.97;62.46;101134.34;2101304;28;20039;-78
2022/05/01 03:39:58;;;;;;;7.68;2.97;;;;;;;17.02;62.39;101129.84;2095294;28;20056;-78
2022/05/01 03:41:19;;;;;;;5.75;2.38;;;;;;;17.06;62.29;101146.75;2093249;28;20049;-78
2022/05/01 03:42:42;;;;;;;8.35;2.55;;;;;;;17.07;62.25;101136.03;2099901;28;20047;-77
2022/05/01 03:44:07;;;;;;;5.95;1.77;;;;;;;17.12;62.22;101144.06;2102570;28;20044;-77
2022/05/01 03:45:29;;;;;;;9.85;2.38;;;;;;;17.14;62.07;101147.56;2094287;28;20068;-77
2022/05/01 03:46:51;;;;;;;4.93;2.35;;;;;;;17.18;61.96;101140.47;2092027;28;20051;-78
2022/05/01 03:48:13;;;;;;;6.35;2.50;;;;;;;17.20;61.97;101154.69;2090508;28;20041;-78
2022/05/01 03:49:35;;;;;;;10.00;2.60;;;;;;;17.22;62.03;101145.75;2090734;28;20079;-78
2022/05/01 03:50:59;;;;;;;6.70;2.22;;;;;;;17.27;62.00;101162.63;2095155;28;20442;-79
2022/05/01 03:52:20;;;;;;;5.82;2.33;;;;;;;17.29;61.91;101158.19;2087618;28;20045;-78
2022/05/01 03:53:45;;;;;;;7.18;2.10;;;;;;;17.32;61.79;101157.28;2100778;28;20490;-78
2022/05/01 03:55:11;;;;;;;7.45;2.75;;;;;;;17.36;61.76;101175.03;2094671;28;20125;-78
2022/05/01 03:56:34;;;;;;;7.10;2.55;;;;;;;17.39;61.54;101157.22;2093876;28;20052;-78
2022/05/01 03:57:55;;;;;;;7.93;2.50;;;;;;;17.44;61.45;101160.75;2094394;28;20172;-79
2022/05/01 03:59:18;;;;;;;11.35;2.40;;;;;;;17.50;61.37;101163.41;2086531;28;20573;-78
2022/05/01 04:00:44;;;;;;;4.47;2.10;;;;;;;17.56;61.18;101164.25;2088044;28;20581;-77
2022/05/01 04:02:06;;;;;;;7.93;2.28;;;;;;;17.62;61.06;101161.56;2101703;28;20118;-78
2022/05/01 04:03:28;;;;;;;4.85;1.98;;;;;;;17.68;60.93;101156.19;2097568;28;20052;-77
2022/05/01 04:04:51;;;;;;;;;;;;;;;17.75;60.67;101157.91;2095665;28;20175;-78
2022/05/01 04:06:14;;;;;;;7.95;2.13;;;;;;;17.78;60.74;101168.59;2094796;28;19924;-78
2022/05/01 04:07:37;;;;;;;5.05;2.65;;;;;;;17.84;60.54;101169.44;2087791;28;20044;-78
2022/05/01 04:09:00;;;;;;;6.50;1.98;;;;;;;17.91;60.45;101180.94;2083444;28;20611;-78
2022/05/01 04:10:23;;;;;;;9.38;3.30;;;;;;;17.99;60.34;101173.75;2089871;28;20151;-79
2022/05/01 04:11:45;;;;;;;5.15;2.15;;;;;;;18.07;59.91;101176.34;2094132;28;20147;-77
2022/05/01 04:13:08;;;;;;;7.60;2.42;;;;;;;18.16;59.74;101177.16;2098868;28;20089;-78
2022/05/01 04:14:32;;;;;;;6.70;2.30;;;;;;;18.26;59.59;101172.63;2094187;28;20452;-78
2022/05/01 04:15:54;;;;;;;6.05;2.28;;;;;;;18.37;59.32;101180.56;2100963;28;20097;-78
2022/05/01 04:17:15;;;;;;;6.07;2.35;;;;;;;18.47;59.12;101176.88;2094390;28;20063;-78
2022/05/01 04:18:38;;;;;;;7.13;2.63;;;;;;;18.58;58.63;101169.66;2089348;28;20496;-79
2022/05/01 04:20:00;;;;;;;4.68;2.08;;;;;;;18.67;58.51;101164.22;2097300;28;20134;-78
2022/05/01 04:21:23;;;;;;;6.85;2.58;;;;;;;18.77;58.22;101165.91;2092400;28;20524;-79
2022/05/01 04:22:48;;;;;;;5.55;2.08;;;;;;;18.87;58.09;101163.97;2092523;28;20143;-79
2022/05/01 04:24:10;;;;;;;4.72;2.05;;;;;;;18.89;57.96;101165.75;2091856;28;20048;-78
2022/05/01 04:25:34;;;;;;;5.88;2.30;;;;;;;18.95;57.73;101168.34;2090645;28;20051;-78
2022/05/01 04:26:56;;;;;;;7.55;2.45;;;;;;;18.96;57.36;101175.47;2086598;28;20330;-78
2022/05/01 04:28:19;;;;;;;6.53;2.70;;;;;;;19.02;57.43;101175.41;2090659;28;20051;-79
2022/05/01 04:29:42;;;;;;;4.63;1.92;;;;;;;19.15;57.47;101175.22;2092505;28;20597;-78
2022/05/01 04:31:04;;;;;;;7.43;2.25;;;;;;;19.28;57.15;101172.38;2103238;28;20145;-78
2022/05/01 04:32:26;;;;;;;5.38;2.30;;;;;;;19.38;56.98;101176.69;2080443;28;20520;-77
2022/05/01 04:33:48;;;;;;;4.57;2.38;;;;;;;19.48;56.66;101180.16;2097659;28;20058;-78
2022/05/01 04:35:09;;;;;;;8.85;3.15;;;;;;;19.56;56.29;101178.25;2097524;28;20098;-78
2022/05/01 04:36:32;;;;;;;8.48;2.58;;;;;;;19.61;55.88;101179.09;2094580;28;20154;-79
2022/05/01 04:37:53;;;;;;;5.63;2.70;;;;;;;19.66;55.78;101181.69;2091662;28;20447;-79
2022/05/01 04:39:16;;;;;;;6.95;2.42;;;;;;;19.67;55.78;101186.13;2091294;28;20057;-79
2022/05/01 04:40:42;;;;;;;11.48;2.70;;;;;;;19.64;55.99;101187.06;2094867;28;20044;-78
2022/05/01 04:42:04;;;;;;;6.07;2.50;;;;;;;19.60;56.02;101185.34;2092961;28;20041;-78
2022/05/01 04:43:29;;;;;;;6.18;2.10;;;;;;;19.61;56.20;101187.13;2094664;28;20511;-78
2022/05/01 04:44:50;;;;;;;9.70;2.60;;;;;;;19.63;56.00;101184.41;2101277;28;20052;-78
2022/05/01 04:46:13;;;;;;;7.65;3.05;;;;;;;19.64;55.87;101184.38;2100056;28;20128;-78
2022/05/01 04:47:36;;;;;;;8.88;3.30;;;;;;;19.63;55.74;101187.97;2096503;28;20531;-77
2022/05/01 04:48:58;;;;;;;8.93;2.78;;;;;;;19.59;55.76;101201.44;2097479;28;20073;-78
2022/05/01 04:50:19;;;;;;;7.10;2.33;;;;;;;19.50;55.73;101195.28;2101510;28;20076;-78
2022/05/01 04:51:42;;;;;;;7.60;2.60;;;;;;;19.44;55.80;101197.13;2094745;28;20056;-78
2022/05/01 04:53:06;;;;;;;4.57;2.83;;;;;;;19.42;55.83;101215.94;2098150;28;20065;-77
2022/05/01 04:54:27;;;;;;;4.85;1.92;;;;;;;19.42;55.91;101204.31;2094815;28;20439;-79
2022/05/01 04:55:52;;;;;;;4.15;2.30;;;;;;;19.46;55.99;101200.72;2090007;28;20129;-78
2022/05/01 04:57:15;;;;;;;5.15;2.42;;;;;;;19.64;55.91;101203.13;2101855;28;20068;-78
2022/05/01 04:58:37;;;;;;;6.22;2.05;;;;;;;19.90;55.53;101208.09;2094669;28;20048;-78
2022/05/01 05:00:00;;;;;;;8.63;3.13;;;;;;;20.20;55.19;101202.25;2098871;28;20052;-78
2022/05/01 05:01:23;;;;;;;6.13;2.97;;;;;;;20.48;54.83;101212.53;2103382;28;20407;-80
2022/05/01 05:02:47;;;;;;;4.32;2.20;;;;;;;20.66;54.44;101205.03;2093958;28;20463;-79
2022/05/01 05:04:09;;;;;;;7.75;2.53;;;;;;;20.79;54.04;101202.13;2100010;28;20044;-78
2022/05/01 05:05:35;;;;;;;8.23;2.28;;;;;;;20.89;53.53;101201.00;2094464;28;20054;-78
2022/05/01 05:06:56;;;;;;;12.20;2.67;;;;;;;20.88;53.50;101202.81;2100816;28;20040;-78
2022/05/01 05:09:59;;;;;;;5.95;3.00;;;;;;;20.79;53.61;101207.50;2088818;28;20083;-78
2022/05/01 05:11:22;;;;;;;7.55;3.75;;;;;;;20.94;53.40;101208.06;2102194;28;20131;-79
2022/05/01 05:12:46;;;;;;;6.75;3.10;;;;;;;21.08;52.56;101197.94;2092051;28;20053;-79
2022/05/01 05:14:08;;;;;;;8.75;2.63;;;;;;;21.12;52.21;101206.81;2097823;28;20039;-78
2022/05/01 05:15:31;;;;;;;3.13;1.73;;;;;;;21.13;52.34;101213.06;2103782;28;20094;-79
2022/05/01 05:16:54;;;;;;;5.07;2.50;;;;;;;20.97;52.69;101210.69;2090969;28;20091;-79
2022/05/01 05:18:17;;;;;;;6.40;2.45;;;;;;;20.94;52.74;101210.75;2091413;28;20079;-79
2022/05/01 05:19:39;;;;;;;8.30;3.25;;;;;;;21.03;52.55;101205.19;2099698;28;20157;-79
2022/05/01 05:21:02;;;;;;;6.10;2.13;;;;;;;21.26;52.36;101203.88;2093420;28;20507;-80
2022/05/01 05:22:24;;;;;;;6.22;2.65;;;;;;;21.32;51.97;101188.53;2099810;28;20044;-79
2022/05/01 05:23:47;;;;;;;8.57;3.17;;;;;;;21.06;52.34;101193.53;2096861;28;20105;-80
2022/05/01 05:25:11;;;;;;;6.13;2.35;;;;;;;20.85;53.13;101207.38;2093426;28;20040;-79
2022/05/01 05:26:34;;;;;;;5.32;2.30;;;;;;;20.75;53.57;101205.75;2100524;28;20059;-79
2022/05/01 05:27:57;;;;;;;6.13;2.55;;;;;;;20.92;53.33;101203.66;2103353;28;20052;-79
2022/05/01 05:29:18;;;;;;;6.35;2.20;;;;;;;20.94;53.17;101207.16;2092539;28;20139;-79
2022/05/01 05:30:40;;;;;;;8.20;2.83;;;;;;;20.93;53.27;101210.78;2091059;28;20060;-79
2022/05/01 05:32:02;;;;;;;5.35;2.20;;;;;;;20.94;53.55;101205.38;2084895;28;20044;-79
2022/05/01 05:33:25;;;;;;;8.73;2.53;;;;;;;21.00;53.33;101205.25;2094370;28;20060;-79
2022/05/01 05:34:48;;;;;;;5.10;2.63;;;;;;;21.06;53.40;101194.41;2095006;28;20064;-79
2022/05/01 05:36:10;;;;;;;6.05;2.90;;;;;;;21.20;53.03;101201.31;2101649;28;20055;-78
2022/05/01 05:37:33;;;;;;;7.68;3.28;;;;;;;21.27;52.77;101209.19;2092636;28;20048;-79
2022/05/01 05:38:54;;;;;;;5.65;3.03;;;;;;;21.29;52.76;101211.84;2094259;28;20039;-79
2022/05/01 05:40:17;;;;;;;6.75;3.03;;;;;;;21.25;52.81;101208.38;2092452;28;20600;-79
2022/05/01 05:41:41;;;;;;;7.22;2.63;;;;;;;21.14;52.89;101221.06;2102828;28;20047;-79
2022/05/01 05:43:04;;;;;;;3.67;2.08;;;;;;;21.11;53.09;101225.63;2105536;28;20052;-79
2022/05/01 05:44:27;;;;;;;5.60;2.42;;;;;;;21.07;53.11;101225.69;2085266;28;20091;-79
2022/05/01 05:45:49;;;;;;;5.88;2.63;;;;;;;21.12;52.71;101228.31;2095245;28;20044;-79
2022/05/01 05:47:12;;;;;;;6.10;2.47;;;;;;;21.61;51.99;101229.97;2102631;28;20036;-81
2022/05/01 05:48:37;;;;;;;6.15;2.90;;;;;;;22.34;50.50;101209.41;2093393;28;20047;-79
2022/05/01 05:49:59;;;;;;;5.90;2.35;;;;;;;23.00;48.70;101207.63;2098949;28;20045;-79
2022/05/01 05:51:20;;;;;;;4.78;2.00;;;;;;;23.35;47.67;101221.88;2096080;28;20044;-80
2022/05/01 05:52:43;;;;;;;7.53;2.35;;;;;;;23.47;47.27;101208.06;2094267;28;20044;-79
2022/05/01 05:54:04;;;;;;;5.50;1.95;;;;;;;23.37;47.45;101218.19;2085909;28;20144;-79
2022/05/01 05:55:27;;;;;;;5.32;2.55;;;;;;;23.47;47.39;101231.41;2087375;28;20048;-80
2022/05/01 05:56:51;;;;;;;7.72;2.22;;;;;;;23.60;47.23;101225.63;2093433;28;20044;-79
2022/05/01 05:58:12;;;;;;;5.63;2.70;;;;;;;23.76;47.13;101229.59;2086801;28;20609;-80
2022/05/01 05:59:35;;;;;;;8.10;2.20;;;;;;;23.52;47.35;101232.19;2084516;28;20691;-78
2022/05/01 06:00:56;;;;;;;5.95;2.20;;;;;;;23.24;47.91;101232.06;2089151;28;20051;-80
2022/05/01 06:02:19;;;;;;;7.68;2.65;;;;;;;22.91;48.39;101232.09;2097091;28;20044;-79
2022/05/01 06:03:41;;;;;;;10.98;3.03;;;;;;;22.56;49.00;101238.44;2095816;28;20049;-79
2022/05/01 06:05:05;;;;;;;6.60;2.00;;;;;;;22.78;48.78;101235.19;2089255;28;20144;-79
2022/05/01 06:06:26;;;;;;;6.00;2.10;;;;;;;23.35;47.86;101243.44;2099761;28;20522;-79
2022/05/01 06:07:49;;;;;;;6.57;2.05;;;;;;;23.95;46.90;101240.72;2104176;28;20048;-80
2022/05/01 06:09:11;;;;;;;7.95;2.17;;;;;;;24.33;46.15;101249.41;2098423;28;20059;-79
2022/05/01 06:10:34;;;;;;;9.15;2.60;;;;;;;24.59;45.19;101242.19;2087258;28;20056;-79
2022/05/01 06:11:58;;;;;;;6.25;2.08;;;;;;;24.83;43.82;101228.75;2093934;28;20524;-80
2022/05/01 06:13:20;;;;;;;8.15;1.90;;;;;;;24.91;43.26;101237.50;2089161;28;20044;-79
2022/05/01 06:14:44;;;;;;;7.68;1.90;;;;;;;24.90;43.30;101230.31;2098082;28;20055;-80
2022/05/01 06:16:07;;;;;;;3.67;1.95;;;;;;;24.99;43.11;101220.09;2099332;28;20078;-80
2022/05/01 06:17:30;;;;;;;6.63;2.42;;;;;;;25.09;42.55;101220.59;2096982;28;20040;-80
2022/05/01 06:18:52;;;;;;;6.60;1.98;;;;;;;25.22;42.13;101212.91;2093159;28;20424;-80
2022/05/01 06:20:14;;;;;;;5.47;2.22;;;;;;;25.40;42.07;101210.41;2096917;28;20043;-80
2022/05/01 06:21:36;;;;;;;8.18;2.38;;;;;;;25.61;42.07;101211.41;2093435;28;20099;-81
2022/05/01 06:22:58;;;;;;;9.52;2.50;;;;;;;25.73;41.94;101204.66;2091542;28;20145;-80
2022/05/01 06:24:21;;;;;;;6.43;2.15;;;;;;;25.80;41.47;101208.84;2103069;28;20087;-79
2022/05/01 06:25:43;;;;;;;5.85;1.90;;;;;;;25.88;41.58;101206.72;2095113;28;20048;-80
2022/05/01 06:27:07;;;;;;;5.40;2.70;;;;;;;25.97;41.33;101205.50;2097578;28;20103;-80
2022/05/01 06:28:30;;;;;;;5.75;1.92;;;;;;;26.03;41.16;101206.13;2101971;28;20085;-79
2022/05/01 06:29:51;;;;;;;3.40;1.48;;;;;;;26.10;41.34;101213.03;2095701;28;20070;-80
2022/05/01 06:31:15;;;;;;;3.72;1.63;;;;;;;26.06;41.06;101208.69;2089329;28;20044;-80
2022/05/01 06:32:37;;;;;;;8.82;3.15;;;;;;;26.12;41.36;101211.13;2092128;28;20044;-80
2022/05/01 06:34:00;;;;;;;9.00;2.15;;;;;;;26.25;41.14;101210.69;2090743;28;20119;-80
2022/05/01 06:35:24;;;;;;;4.70;1.90;;;;;;;26.42;41.07;101203.59;2090795;28;20168;-79
2022/05/01 06:36:47;;;;;;;6.70;1.77;;;;;;;26.51;40.34;101210.44;2102195;28;20457;-79
2022/05/01 06:38:08;;;;;;;9.35;2.78;;;;;;;26.40;40.05;101207.28;2095177;28;20442;-79
2022/05/01 06:39:31;;;;;;;5.32;1.90;;;;;;;26.26;40.19;101207.00;2093409;28;20504;-80
2022/05/01 06:40:53;;;;;;;4.78;2.35;;;;;;;26.34;39.99;101208.44;2097590;28;20421;-81
2022/05/01 06:42:17;;;;;;;6.47;1.80;;;;;;;26.35;40.03;101206.63;2076388;28;20548;-81
2022/05/01 06:43:39;;;;;;;6.15;1.83;;;;;;;26.48;39.80;101207.84;2078139;28;20052;-79